Time;durP1;ratioP1;P1;durP2;ratioP2;P2;SDS_P1;SDS_P2;PMS_P1;PMS_P2;Temp;Humidity;BMP_temperature;BMP_pressure;BME280_temperature;BME280_humidity;BME280_pressure;Samples;Min_cycle;Max_cycle;Signal;HPM_P1;HPM_P2
2021/06/19 00:00:39;;;;;;;10.23;5.45;;;;;;;;;;1909422;67;20080;-57
2021/06/19 00:03:05;;;;;;;10.82;5.38;;;;;;;;;;1909264;75;20079;-57
2021/06/19 00:05:32;;;;;;;7.28;5.32;;;;;;;;;;1908402;67;20102;-57
2021/06/19 00:07:57;;;;;;;13.07;5.55;;;;;;;;;;1908700;67;20098;-58
2021/06/19 00:10:23;;;;;;;7.68;5.28;;;;;;;;;;1908539;75;20088;-56
2021/06/19 00:12:50;;;;;;;13.43;5.30;;;;;;;;;;1908822;67;20087;-56
2021/06/19 00:15:19;;;;;;;11.05;4.97;;;;;;;;;;1908944;75;20099;-57
2021/06/19 00:17:45;;;;;;;11.68;5.25;;;;;;;;;;1908356;67;20080;-59
2021/06/19 00:20:13;;;;;;;10.32;5.13;;;;;;;;;;1909129;67;20499;-58
2021/06/19 00:22:39;;;;;;;8.70;4.57;;;;;;;;;;1908164;67;20166;-55
2021/06/19 00:25:06;;;;;;;7.70;4.55;;;;;;;;;;1908645;67;20098;-56
2021/06/19 00:27:32;;;;;;;19.52;4.20;;;;;;;;;;1907842;67;20136;-56
2021/06/19 00:29:57;;;;;;;7.45;4.03;;;;;;;;;;1909702;67;20106;-57
2021/06/19 00:32:23;;;;;;;11.57;4.13;;;;;;;;;;1909544;67;20147;-56
2021/06/19 00:34:48;;;;;;;12.75;3.83;;;;;;;;;;1908515;67;20108;-57
2021/06/19 00:37:14;;;;;;;17.40;4.05;;;;;;;;;;1906638;67;20454;-56
2021/06/19 00:39:39;;;;;;;9.85;4.63;;;;;;;;;;1908237;67;20095;-56
2021/06/19 00:42:05;;;;;;;8.00;4.85;;;;;;;;;;1908513;67;20515;-56
2021/06/19 00:44:31;;;;;;;9.75;4.43;;;;;;;;;;1907875;67;20088;-57
2021/06/19 00:46:57;;;;;;;10.63;4.80;;;;;;;;;;1908704;67;20173;-57
2021/06/19 00:49:24;;;;;;;9.70;4.22;;;;;;;;;;1908776;67;20090;-57
2021/06/19 00:51:51;;;;;;;9.82;4.90;;;;;;;;;;1908409;67;20094;-57
2021/06/19 00:54:17;;;;;;;10.30;4.78;;;;;;;;;;1908613;67;20476;-62
2021/06/19 00:56:44;;;;;;;10.73;5.10;;;;;;;;;;1908775;67;20184;-61
2021/06/19 00:59:11;;;;;;;10.70;4.68;;;;;;;;;;1908389;67;20091;-62
2021/06/19 01:01:37;;;;;;;9.70;4.82;;;;;;;;;;1908633;67;20072;-62
2021/06/19 01:04:04;;;;;;;9.82;4.70;;;;;;;;;;1908561;67;20102;-61
2021/06/19 01:06:32;;;;;;;8.52;4.65;;;;;;;;;;1908617;67;20135;-60
2021/06/19 01:08:58;;;;;;;7.75;4.25;;;;;;;;;;1908246;67;20083;-63
2021/06/19 01:11:26;;;;;;;10.20;4.72;;;;;;;;;;1908743;67;20102;-61
2021/06/19 01:13:52;;;;;;;5.70;4.07;;;;;;;;;;1909253;67;20088;-61
2021/06/19 01:16:19;;;;;;;9.18;4.28;;;;;;;;;;1907468;67;20281;-60
2021/06/19 01:18:46;;;;;;;12.60;5.15;;;;;;;;;;1907941;67;20143;-62
2021/06/19 01:21:23;;;;;;;11.38;4.88;;;;;;;;;;1909322;67;20080;-60
2021/06/19 01:23:49;;;;;;;8.10;4.38;;;;;;;;;;1909928;67;20099;-60
2021/06/19 01:26:16;;;;;;;6.78;4.20;;;;;;;;;;1908482;67;20091;-59
2021/06/19 01:28:44;;;;;;;9.35;4.85;;;;;;;;;;1908430;67;20084;-62
2021/06/19 01:31:10;;;;;;;8.57;4.43;;;;;;;;;;1908421;75;20387;-63
2021/06/19 01:33:40;;;;;;;7.32;4.65;;;;;;;;;;1910340;67;20080;-62
2021/06/19 01:36:07;;;;;;;8.07;4.50;;;;;;;;;;1909495;67;20087;-62
2021/06/19 01:38:47;;;;;;;9.85;4.80;;;;;;;;;;1907733;67;20084;-62
2021/06/19 01:41:24;;;;;;;14.73;4.65;;;;;;;;;;1908807;75;20083;-62
2021/06/19 01:44:00;;;;;;;8.50;4.50;;;;;;;;;;1908810;75;21301;-60
2021/06/19 01:46:26;;;;;;;11.43;4.93;;;;;;;;;;1908066;67;20141;-60
2021/06/19 01:48:52;;;;;;;7.20;4.20;;;;;;;;;;1909141;67;20084;-61
2021/06/19 01:51:17;;;;;;;8.57;4.75;;;;;;;;;;1908996;67;20145;-59
2021/06/19 01:53:46;;;;;;;14.38;4.60;;;;;;;;;;1909398;67;20164;-61
2021/06/19 01:56:12;;;;;;;7.22;4.75;;;;;;;;;;1909564;67;20152;-61
2021/06/19 01:58:38;;;;;;;7.57;5.00;;;;;;;;;;1908261;67;20624;-61
2021/06/19 02:01:05;;;;;;;8.40;4.55;;;;;;;;;;1908483;67;20560;-62
2021/06/19 02:03:31;;;;;;;16.92;5.13;;;;;;;;;;1908299;67;20092;-61
2021/06/19 02:05:57;;;;;;;6.28;4.78;;;;;;;;;;1906380;67;20100;-61
2021/06/19 02:08:22;;;;;;;7.05;3.97;;;;;;;;;;1908542;67;20084;-61
2021/06/19 02:10:48;;;;;;;9.70;5.00;;;;;;;;;;1909005;67;20295;-61
2021/06/19 02:13:14;;;;;;;8.60;4.32;;;;;;;;;;1909173;67;20453;-61
2021/06/19 02:15:42;;;;;;;7.90;4.88;;;;;;;;;;1908676;67;20484;-62
2021/06/19 02:18:08;;;;;;;7.63;4.38;;;;;;;;;;1908654;67;20080;-61
2021/06/19 02:20:34;;;;;;;9.55;4.82;;;;;;;;;;1908274;75;20076;-61
2021/06/19 02:23:00;;;;;;;9.27;4.25;;;;;;;;;;1908382;67;20091;-61
2021/06/19 02:25:28;;;;;;;8.82;4.80;;;;;;;;;;1908083;67;20503;-61
2021/06/19 02:28:00;;;;;;;8.27;4.60;;;;;;;;;;1908646;67;20291;-60
2021/06/19 02:30:28;;;;;;;11.75;4.60;;;;;;;;;;1909454;67;20084;-62
2021/06/19 02:32:55;;;;;;;11.25;4.45;;;;;;;;;;1907313;67;20118;-60
2021/06/19 02:35:22;;;;;;;7.03;4.25;;;;;;;;;;1908750;67;20080;-61
2021/06/19 02:37:48;;;;;;;8.88;4.43;;;;;;;;;;1909359;67;20696;-61
2021/06/19 02:40:14;;;;;;;9.07;4.63;;;;;;;;;;1908595;67;20103;-61
2021/06/19 02:42:40;;;;;;;11.32;4.40;;;;;;;;;;1908623;67;20083;-61
2021/06/19 02:45:11;;;;;;;7.15;4.47;;;;;;;;;;1909172;67;20198;-59
2021/06/19 02:47:46;;;;;;;7.43;3.65;;;;;;;;;;1908098;67;20523;-61
2021/06/19 02:50:13;;;;;;;8.32;4.63;;;;;;;;;;1907998;67;20087;-61
2021/06/19 02:52:43;;;;;;;8.32;4.75;;;;;;;;;;1909219;75;20493;-60
2021/06/19 02:55:11;;;;;;;9.25;4.45;;;;;;;;;;1908932;67;20092;-61
2021/06/19 02:57:37;;;;;;;13.32;5.30;;;;;;;;;;1907444;67;20137;-60
2021/06/19 03:00:08;;;;;;;8.00;4.82;;;;;;;;;;1908987;67;20091;-61
2021/06/19 03:02:33;;;;;;;8.18;4.75;;;;;;;;;;1908588;67;20395;-55
2021/06/19 03:04:59;;;;;;;8.35;4.25;;;;;;;;;;1908400;67;20114;-55
2021/06/19 03:07:25;;;;;;;6.03;4.28;;;;;;;;;;1908842;67;20087;-54
2021/06/19 03:09:50;;;;;;;7.72;4.50;;;;;;;;;;1908761;67;20111;-55
2021/06/19 03:12:16;;;;;;;10.60;4.20;;;;;;;;;;1909125;75;20100;-55
2021/06/19 03:14:41;;;;;;;7.40;4.57;;;;;;;;;;1908808;67;20114;-55
2021/06/19 03:17:07;;;;;;;5.47;4.05;;;;;;;;;;1908642;67;20092;-58
2021/06/19 03:19:32;;;;;;;9.10;4.53;;;;;;;;;;1909401;67;20265;-56
2021/06/19 03:21:59;;;;;;;8.13;4.57;;;;;;;;;;1909519;67;20161;-56
2021/06/19 03:24:25;;;;;;;6.68;4.57;;;;;;;;;;1908305;67;20089;-56
2021/06/19 03:26:50;;;;;;;8.52;4.07;;;;;;;;;;1908336;67;20136;-56
2021/06/19 03:29:16;;;;;;;8.23;4.97;;;;;;;;;;1908893;67;20088;-57
2021/06/19 03:31:42;;;;;;;4.82;3.78;;;;;;;;;;1908796;67;20079;-57
2021/06/19 03:34:07;;;;;;;10.30;4.32;;;;;;;;;;1908941;67;20213;-62
2021/06/19 03:36:33;;;;;;;8.93;4.47;;;;;;;;;;1909425;67;20283;-62
2021/06/19 03:38:58;;;;;;;7.72;4.07;;;;;;;;;;1909219;67;20503;-61
2021/06/19 03:41:24;;;;;;;10.40;3.90;;;;;;;;;;1909509;67;20088;-61
2021/06/19 03:43:50;;;;;;;6.72;3.80;;;;;;;;;;1909740;67;20950;-62
2021/06/19 03:46:16;;;;;;;10.10;4.35;;;;;;;;;;1908823;67;20173;-61
2021/06/19 03:48:41;;;;;;;5.15;3.08;;;;;;;;;;1909048;67;20092;-61
2021/06/19 03:51:07;;;;;;;6.00;3.47;;;;;;;;;;1908513;67;20091;-61
2021/06/19 03:53:32;;;;;;;7.03;3.65;;;;;;;;;;1909664;67;20146;-62
2021/06/19 03:55:58;;;;;;;8.80;3.38;;;;;;;;;;1909034;67;20088;-62
2021/06/19 03:58:23;;;;;;;9.23;3.30;;;;;;;;;;1909225;67;20086;-62
2021/06/19 04:00:49;;;;;;;8.80;3.30;;;;;;;;;;1909300;67;20495;-61
2021/06/19 04:03:14;;;;;;;6.97;3.53;;;;;;;;;;1909257;67;20129;-62
2021/06/19 04:05:40;;;;;;;6.78;3.65;;;;;;;;;;1909609;67;20080;-61
2021/06/19 04:08:05;;;;;;;4.80;3.30;;;;;;;;;;1908352;67;20090;-61
2021/06/19 04:10:31;;;;;;;12.07;3.20;;;;;;;;;;1907963;67;20076;-61
2021/06/19 04:12:56;;;;;;;6.07;3.17;;;;;;;;;;1909514;67;20075;-60
2021/06/19 04:15:22;;;;;;;4.30;3.15;;;;;;;;;;1909254;67;20088;-62
2021/06/19 04:17:48;;;;;;;7.40;3.13;;;;;;;;;;1909515;67;20161;-61
2021/06/19 04:20:15;;;;;;;6.95;3.40;;;;;;;;;;1909326;67;20491;-61
2021/06/19 04:22:42;;;;;;;7.28;3.53;;;;;;;;;;1910816;67;20082;-61
2021/06/19 04:25:09;;;;;;;4.47;3.05;;;;;;;;;;1908580;67;20103;-61
2021/06/19 04:27:50;;;;;;;7.97;3.35;;;;;;;;;;1909791;67;20091;-61
2021/06/19 04:30:17;;;;;;;8.20;2.92;;;;;;;;;;1909115;67;20094;-61
2021/06/19 04:32:43;;;;;;;10.00;3.38;;;;;;;;;;1910118;67;20106;-61
2021/06/19 04:35:09;;;;;;;5.38;2.92;;;;;;;;;;1909104;75;20523;-60
2021/06/19 04:37:35;;;;;;;5.93;3.70;;;;;;;;;;1909008;75;20142;-62
2021/06/19 04:42:34;;;;;;;7.68;3.10;;;;;;;;;;1909606;67;20119;-62
2021/06/19 04:45:02;;;;;;;6.25;3.20;;;;;;;;;;1907971;67;20391;-61
2021/06/19 04:47:28;;;;;;;7.00;2.90;;;;;;;;;;1909382;75;20783;-61
2021/06/19 04:49:54;;;;;;;7.32;3.05;;;;;;;;;;1908398;67;20149;-62
2021/06/19 04:52:21;;;;;;;6.47;3.35;;;;;;;;;;1908622;67;20092;-61
2021/06/19 04:54:47;;;;;;;5.80;2.97;;;;;;;;;;1909350;67;20490;-61
2021/06/19 04:57:13;;;;;;;4.78;3.03;;;;;;;;;;1909559;67;20087;-62
2021/06/19 04:59:38;;;;;;;5.32;2.97;;;;;;;;;;1909371;67;20079;-60
2021/06/19 05:02:04;;;;;;;7.18;2.75;;;;;;;;;;1908818;67;20079;-61
2021/06/19 05:04:29;;;;;;;7.90;2.83;;;;;;;;;;1909509;67;20115;-56
2021/06/19 05:06:55;;;;;;;5.93;2.90;;;;;;;;;;1908925;75;20534;-56
2021/06/19 05:09:21;;;;;;;7.15;3.67;;;;;;;;;;1908737;67;20507;-56
2021/06/19 05:11:46;;;;;;;10.98;3.28;;;;;;;;;;1909637;67;20101;-57
2021/06/19 05:14:12;;;;;;;6.35;2.78;;;;;;;;;;1911236;67;20084;-56
2021/06/19 05:16:37;;;;;;;7.05;2.90;;;;;;;;;;1909255;67;20510;-57
2021/06/19 05:19:03;;;;;;;9.05;3.20;;;;;;;;;;1908998;67;20084;-57
2021/06/19 05:21:28;;;;;;;6.45;3.03;;;;;;;;;;1909956;67;20084;-58
2021/06/19 05:23:54;;;;;;;5.53;3.15;;;;;;;;;;1909527;67;20164;-58
2021/06/19 05:26:20;;;;;;;7.88;3.20;;;;;;;;;;1909703;67;20083;-57
2021/06/19 05:28:45;;;;;;;4.20;2.80;;;;;;;;;;1909029;67;20395;-57
2021/06/19 05:31:11;;;;;;;6.22;3.10;;;;;;;;;;1909254;67;20083;-57
2021/06/19 05:33:36;;;;;;;5.60;3.33;;;;;;;;;;1908889;67;20087;-62
2021/06/19 05:36:03;;;;;;;4.57;3.25;;;;;;;;;;1909025;67;20395;-61
2021/06/19 05:38:28;;;;;;;6.10;3.20;;;;;;;;;;1908700;67;20186;-61
2021/06/19 05:40:54;;;;;;;3.38;2.95;;;;;;;;;;1908903;67;20087;-62
2021/06/19 05:43:19;;;;;;;4.95;2.88;;;;;;;;;;1910802;67;20090;-61
2021/06/19 05:45:45;;;;;;;6.68;3.10;;;;;;;;;;1909792;75;20454;-61
2021/06/19 05:48:10;;;;;;;5.55;3.70;;;;;;;;;;1909435;67;20076;-62
2021/06/19 05:50:36;;;;;;;5.25;2.80;;;;;;;;;;1909775;67;20135;-62
2021/06/19 05:53:02;;;;;;;7.35;3.08;;;;;;;;;;1907727;67;20075;-62
2021/06/19 05:55:28;;;;;;;7.03;3.00;;;;;;;;;;1909429;67;20128;-63
2021/06/19 05:57:53;;;;;;;6.80;3.03;;;;;;;;;;1909829;67;20099;-61
2021/06/19 06:00:19;;;;;;;5.55;2.80;;;;;;;;;;1909092;67;20091;-61
2021/06/19 06:02:45;;;;;;;7.07;2.63;;;;;;;;;;1908244;67;20080;-57
2021/06/19 06:05:11;;;;;;;6.47;2.92;;;;;;;;;;1908860;67;20084;-57
2021/06/19 06:07:37;;;;;;;6.88;2.85;;;;;;;;;;1909910;67;20098;-57
2021/06/19 06:10:06;;;;;;;9.60;3.13;;;;;;;;;;1910360;59;20419;-58
2021/06/19 06:12:32;;;;;;;6.32;2.63;;;;;;;;;;1909783;67;20119;-57
2021/06/19 06:14:58;;;;;;;5.38;2.80;;;;;;;;;;1909842;67;20420;-57
2021/06/19 06:17:25;;;;;;;6.70;2.40;;;;;;;;;;1909286;67;20083;-57
2021/06/19 06:19:51;;;;;;;6.50;2.83;;;;;;;;;;1909282;67;20151;-57
2021/06/19 06:22:16;;;;;;;6.85;2.70;;;;;;;;;;1908510;67;20506;-56
2021/06/19 06:24:42;;;;;;;4.25;2.47;;;;;;;;;;1908976;67;20083;-57
2021/06/19 06:27:07;;;;;;;5.28;2.40;;;;;;;;;;1908992;67;20079;-57
2021/06/19 06:29:33;;;;;;;8.63;2.30;;;;;;;;;;1910135;59;20072;-60
2021/06/19 06:31:58;;;;;;;5.53;1.90;;;;;;;;;;1908710;67;20485;-57
2021/06/19 06:34:24;;;;;;;8.95;1.95;;;;;;;;;;1910603;67;20091;-63
2021/06/19 06:36:51;;;;;;;6.60;2.28;;;;;;;;;;1909210;67;20131;-62
2021/06/19 06:39:16;;;;;;;5.63;2.35;;;;;;;;;;1909256;67;20072;-62
2021/06/19 06:41:42;;;;;;;12.85;2.50;;;;;;;;;;1909815;67;20086;-63
2021/06/19 06:44:07;;;;;;;5.15;1.98;;;;;;;;;;1909560;67;20094;-60
2021/06/19 06:46:33;;;;;;;4.60;2.47;;;;;;;;;;1909146;67;20087;-61
2021/06/19 06:48:58;;;;;;;9.52;2.17;;;;;;;;;;1909420;67;20788;-60
2021/06/19 06:51:24;;;;;;;7.70;2.05;;;;;;;;;;1909294;67;20084;-63
2021/06/19 06:53:51;;;;;;;5.55;1.80;;;;;;;;;;1907463;67;20140;-62
2021/06/19 06:56:16;;;;;;;9.15;1.92;;;;;;;;;;1909346;67;20086;-62
2021/06/19 06:58:42;;;;;;;5.55;1.42;;;;;;;;;;1908714;67;20075;-61
2021/06/19 07:01:08;;;;;;;6.70;1.42;;;;;;;;;;1908679;67;20663;-62
2021/06/19 07:03:34;;;;;;;5.45;2.10;;;;;;;;;;1908192;67;20087;-61
2021/06/19 07:06:00;;;;;;;4.30;1.70;;;;;;;;;;1909018;67;20095;-62
2021/06/19 07:08:26;;;;;;;6.30;1.77;;;;;;;;;;1909341;67;20503;-62
2021/06/19 07:10:51;;;;;;;3.50;1.42;;;;;;;;;;1909385;67;20090;-60
2021/06/19 07:13:17;;;;;;;14.45;1.52;;;;;;;;;;1908065;67;20514;-62
2021/06/19 07:15:44;;;;;;;6.40;1.23;;;;;;;;;;1907785;67;20100;-62
2021/06/19 07:18:11;;;;;;;5.28;1.40;;;;;;;;;;1908634;67;20077;-63
2021/06/19 07:20:36;;;;;;;6.45;1.40;;;;;;;;;;1908170;67;20091;-62
2021/06/19 07:23:02;;;;;;;6.32;1.25;;;;;;;;;;1908855;67;20088;-62
2021/06/19 07:25:28;;;;;;;3.85;1.10;;;;;;;;;;1908454;67;20141;-62
2021/06/19 07:27:54;;;;;;;6.60;1.65;;;;;;;;;;1908595;59;20283;-61
2021/06/19 07:30:21;;;;;;;6.95;1.17;;;;;;;;;;1908546;75;20134;-62
2021/06/19 07:32:47;;;;;;;4.10;1.08;;;;;;;;;;1909167;67;20096;-61
2021/06/19 07:35:13;;;;;;;4.78;1.35;;;;;;;;;;1909294;67;20091;-63
2021/06/19 07:37:38;;;;;;;7.43;1.10;;;;;;;;;;1908623;67;20525;-63
2021/06/19 07:40:05;;;;;;;3.88;1.20;;;;;;;;;;1907164;67;20129;-63
2021/06/19 07:42:31;;;;;;;2.85;1.00;;;;;;;;;;1908595;67;20087;-63
2021/06/19 07:44:57;;;;;;;5.93;1.20;;;;;;;;;;1908434;75;20131;-62
2021/06/19 07:47:22;;;;;;;6.93;1.10;;;;;;;;;;1907721;67;20365;-64
2021/06/19 07:49:48;;;;;;;4.03;1.17;;;;;;;;;;1909052;67;20137;-63
2021/06/19 07:52:13;;;;;;;4.82;1.48;;;;;;;;;;1907734;67;20079;-63
2021/06/19 07:54:39;;;;;;;5.97;1.35;;;;;;;;;;1909532;67;20091;-62
2021/06/19 07:57:08;;;;;;;4.57;1.38;;;;;;;;;;1908853;67;20567;-62
2021/06/19 07:59:34;;;;;;;3.70;1.30;;;;;;;;;;1908699;67;20095;-61
2021/06/19 08:02:00;;;;;;;6.82;1.70;;;;;;;;;;1910151;67;20131;-61
2021/06/19 08:04:26;;;;;;;9.07;1.55;;;;;;;;;;1908361;67;20434;-62
2021/06/19 08:06:51;;;;;;;13.23;1.50;;;;;;;;;;1910259;67;20099;-61
2021/06/19 08:09:17;;;;;;;4.60;1.10;;;;;;;;;;1909094;67;20088;-62
2021/06/19 08:11:42;;;;;;;3.85;1.00;;;;;;;;;;1909396;67;20313;-60
2021/06/19 08:14:08;;;;;;;3.65;1.10;;;;;;;;;;1909559;67;20079;-62
2021/06/19 08:16:34;;;;;;;7.25;1.35;;;;;;;;;;1909827;67;20568;-62
2021/06/19 08:18:59;;;;;;;3.22;1.17;;;;;;;;;;1908962;67;20086;-62
2021/06/19 08:21:25;;;;;;;2.60;1.08;;;;;;;;;;1909580;59;20079;-62
2021/06/19 08:23:50;;;;;;;3.00;1.10;;;;;;;;;;1909492;59;20115;-61
2021/06/19 08:26:16;;;;;;;5.40;1.50;;;;;;;;;;1911311;67;20083;-62
2021/06/19 08:28:41;;;;;;;5.70;1.30;;;;;;;;;;1909812;67;20098;-62
2021/06/19 08:31:07;;;;;;;2.45;1.10;;;;;;;;;;1909628;67;20088;-62
2021/06/19 08:33:32;;;;;;;5.40;1.27;;;;;;;;;;1907445;67;20541;-58
2021/06/19 08:35:58;;;;;;;7.35;1.30;;;;;;;;;;1908678;67;20088;-58
2021/06/19 08:38:24;;;;;;;4.35;1.00;;;;;;;;;;1909030;67;20500;-58
2021/06/19 08:40:49;;;;;;;5.78;1.35;;;;;;;;;;1908496;67;20084;-58
2021/06/19 08:43:16;;;;;;;1.52;1.10;;;;;;;;;;1909295;67;20103;-59
2021/06/19 08:45:42;;;;;;;4.63;1.35;;;;;;;;;;1908884;67;20517;-57
2021/06/19 08:48:08;;;;;;;4.30;1.13;;;;;;;;;;1909223;67;20099;-57
2021/06/19 08:50:37;;;;;;;7.53;1.40;;;;;;;;;;1909352;67;20091;-57
2021/06/19 08:53:03;;;;;;;2.45;1.25;;;;;;;;;;1908454;67;20163;-58
2021/06/19 08:55:28;;;;;;;6.55;1.10;;;;;;;;;;1909155;67;20095;-58
2021/06/19 08:57:54;;;;;;;6.05;1.27;;;;;;;;;;1909423;67;20499;-58
2021/06/19 09:00:21;;;;;;;7.30;1.30;;;;;;;;;;1907939;67;20091;-57
2021/06/19 09:02:48;;;;;;;5.13;1.10;;;;;;;;;;1908704;67;20103;-62
2021/06/19 09:05:16;;;;;;;5.97;1.40;;;;;;;;;;1909006;67;20092;-62
2021/06/19 09:07:49;;;;;;;23.77;2.63;;;;;;;;;;1909082;67;20080;-62
2021/06/19 09:10:19;;;;;;;7.57;1.83;;;;;;;;;;1908493;67;20098;-62
2021/06/19 09:13:02;;;;;;;7.00;2.10;;;;;;;;;;1908245;67;20802;-63
2021/06/19 09:15:31;;;;;;;5.93;1.85;;;;;;;;;;1909351;75;20561;-61
2021/06/19 09:18:04;;;;;;;6.60;1.50;;;;;;;;;;1908863;75;20590;-65
2021/06/19 09:20:35;;;;;;;3.88;1.50;;;;;;;;;;1909698;67;20083;-64
2021/06/19 09:23:03;;;;;;;5.30;2.40;;;;;;;;;;1909264;67;20492;-62
2021/06/19 09:25:28;;;;;;;2.72;1.58;;;;;;;;;;1908662;75;20109;-62
2021/06/19 09:27:56;;;;;;;7.20;1.65;;;;;;;;;;1908507;67;20106;-61
2021/06/19 09:30:23;;;;;;;5.80;1.95;;;;;;;;;;1908234;67;20482;-62
2021/06/19 09:32:50;;;;;;;4.97;1.80;;;;;;;;;;1908952;67;20091;-59
2021/06/19 09:35:30;;;;;;;4.47;1.52;;;;;;;;;;1908176;67;20424;-57
2021/06/19 09:38:11;;;;;;;7.03;2.15;;;;;;;;;;1908852;67;20510;-57
2021/06/19 09:40:39;;;;;;;6.07;1.90;;;;;;;;;;1909247;67;20210;-57
2021/06/19 09:43:16;;;;;;;8.07;2.60;;;;;;;;;;1910223;67;20087;-59
2021/06/19 09:46:03;;;;;;;7.40;2.53;;;;;;;;;;1908735;75;20512;-58
2021/06/19 09:48:34;;;;;;;5.13;1.73;;;;;;;;;;1909245;67;20084;-56
2021/06/19 09:51:09;;;;;;;6.70;2.08;;;;;;;;;;1909282;67;20099;-58
2021/06/19 09:53:34;;;;;;;7.57;1.77;;;;;;;;;;1909712;67;20088;-58
2021/06/19 09:56:08;;;;;;;7.55;1.58;;;;;;;;;;1910412;67;20106;-58
2021/06/19 09:58:38;;;;;;;4.82;1.55;;;;;;;;;;1909192;67;20090;-57
2021/06/19 10:01:04;;;;;;;6.13;1.30;;;;;;;;;;1909933;67;20148;-59
2021/06/19 10:03:29;;;;;;;4.97;1.45;;;;;;;;;;1910299;67;20530;-60
2021/06/19 10:05:55;;;;;;;10.00;2.00;;;;;;;;;;1910576;67;20186;-61
2021/06/19 10:08:22;;;;;;;5.10;2.05;;;;;;;;;;1909313;67;20084;-63
2021/06/19 10:10:48;;;;;;;8.80;1.50;;;;;;;;;;1910142;67;20114;-58
2021/06/19 10:13:14;;;;;;;6.13;1.60;;;;;;;;;;1911106;67;20514;-61
2021/06/19 10:15:40;;;;;;;4.35;1.30;;;;;;;;;;1906480;67;20117;-59
2021/06/19 10:18:07;;;;;;;5.63;1.50;;;;;;;;;;1907575;67;20091;-57
2021/06/19 10:20:32;;;;;;;4.53;1.55;;;;;;;;;;1908867;67;20099;-57
2021/06/19 10:22:58;;;;;;;4.25;1.90;;;;;;;;;;1908949;67;20083;-59
2021/06/19 10:25:26;;;;;;;7.70;2.15;;;;;;;;;;1908779;67;20091;-57
2021/06/19 10:27:53;;;;;;;6.43;1.73;;;;;;;;;;1909695;67;20113;-57
2021/06/19 10:30:24;;;;;;;5.57;1.50;;;;;;;;;;1909398;67;20083;-58
2021/06/19 10:32:51;;;;;;;8.38;1.92;;;;;;;;;;1910703;67;20149;-58
2021/06/19 10:35:22;;;;;;;5.20;1.33;;;;;;;;;;1909520;67;20153;-58
2021/06/19 10:37:50;;;;;;;9.90;2.73;;;;;;;;;;1908775;67;20092;-58
2021/06/19 10:40:27;;;;;;;6.25;1.50;;;;;;;;;;1908223;67;20088;-57
2021/06/19 10:42:55;;;;;;;3.35;1.30;;;;;;;;;;1909056;67;20094;-58
2021/06/19 10:45:22;;;;;;;4.72;1.30;;;;;;;;;;1908851;67;20081;-57
2021/06/19 10:48:08;;;;;;;6.00;1.92;;;;;;;;;;1909553;67;20148;-57
2021/06/19 10:50:36;;;;;;;8.93;1.40;;;;;;;;;;1908812;67;20106;-58
2021/06/19 10:53:19;;;;;;;3.58;1.20;;;;;;;;;;1908758;67;20102;-58
2021/06/19 10:55:52;;;;;;;4.75;1.67;;;;;;;;;;1908342;75;20084;-58
2021/06/19 10:58:24;;;;;;;5.78;1.67;;;;;;;;;;1908958;75;20549;-58
2021/06/19 11:00:59;;;;;;;3.13;1.10;;;;;;;;;;1908978;67;20080;-57
2021/06/19 11:03:53;;;;;;;6.20;1.50;;;;;;;;;;1908063;67;20076;-61
2021/06/19 11:06:26;;;;;;;3.28;1.23;;;;;;;;;;1908356;75;20106;-60
2021/06/19 11:08:58;;;;;;;6.75;1.42;;;;;;;;;;1909069;67;20508;-60
2021/06/19 11:11:56;;;;;;;5.03;1.52;;;;;;;;;;1908885;67;20129;-61
2021/06/19 11:14:46;;;;;;;10.48;2.10;;;;;;;;;;1908029;67;20534;-60
2021/06/19 11:17:35;;;;;;;4.38;1.52;;;;;;;;;;1909832;67;20091;-60
2021/06/19 11:20:21;;;;;;;7.45;1.70;;;;;;;;;;1909015;67;20079;-60
2021/06/19 11:22:59;;;;;;;5.15;1.23;;;;;;;;;;1909433;67;20194;-61
2021/06/19 11:25:39;;;;;;;6.07;1.48;;;;;;;;;;1909467;67;20488;-60
2021/06/19 11:28:07;;;;;;;4.68;1.02;;;;;;;;;;1906909;67;20084;-60
2021/06/19 11:30:36;;;;;;;4.45;1.13;;;;;;;;;;1910087;67;20080;-60
2021/06/19 11:33:20;;;;;;;6.20;1.08;;;;;;;;;;1908551;67;20083;-59
2021/06/19 11:35:56;;;;;;;5.13;1.13;;;;;;;;;;1908146;67;20499;-57
2021/06/19 11:38:23;;;;;;;3.83;1.17;;;;;;;;;;1907760;67;20096;-59
2021/06/19 11:40:49;;;;;;;3.85;1.15;;;;;;;;;;1907460;67;20079;-58
2021/06/19 11:43:28;;;;;;;4.70;0.82;;;;;;;;;;1908093;67;20091;-58
2021/06/19 11:46:01;;;;;;;5.90;1.13;;;;;;;;;;1908779;67;20394;-58
2021/06/19 11:48:26;;;;;;;10.10;1.30;;;;;;;;;;1908219;67;20149;-58
2021/06/19 11:51:03;;;;;;;5.47;1.25;;;;;;;;;;1907968;67;20084;-58
2021/06/19 11:53:32;;;;;;;6.05;1.58;;;;;;;;;;1907517;67;20095;-60
2021/06/19 11:56:13;;;;;;;3.15;1.02;;;;;;;;;;1908183;75;20609;-58
2021/06/19 11:58:43;;;;;;;3.93;1.07;;;;;;;;;;1908631;67;20084;-57
2021/06/19 12:01:08;;;;;;;4.97;0.93;;;;;;;;;;1908256;67;20110;-58
2021/06/19 12:03:34;;;;;;;3.97;1.08;;;;;;;;;;1908044;67;20494;-62
2021/06/19 12:05:59;;;;;;;6.50;1.10;;;;;;;;;;1907769;67;20147;-62
2021/06/19 12:08:25;;;;;;;5.55;0.90;;;;;;;;;;1907603;67;20087;-62
2021/06/19 12:10:51;;;;;;;3.03;1.15;;;;;;;;;;1907548;75;20091;-61
2021/06/19 12:13:27;;;;;;;5.97;1.25;;;;;;;;;;1908713;75;20091;-62
2021/06/19 12:15:53;;;;;;;3.97;1.00;;;;;;;;;;1908299;75;20491;-62
2021/06/19 12:18:19;;;;;;;4.60;0.95;;;;;;;;;;1908393;67;20083;-62
2021/06/19 12:21:10;;;;;;;5.07;0.98;;;;;;;;;;1907954;67;20088;-62
2021/06/19 12:23:42;;;;;;;3.97;1.23;;;;;;;;;;1907710;67;20088;-62
2021/06/19 12:26:10;;;;;;;8.52;1.48;;;;;;;;;;1908311;75;20186;-61
2021/06/19 12:28:45;;;;;;;5.93;1.27;;;;;;;;;;1908363;67;20411;-61
2021/06/19 12:31:14;;;;;;;3.20;1.10;;;;;;;;;;1908840;75;21214;-62
2021/06/19 12:33:39;;;;;;;9.15;1.40;;;;;;;;;;1908148;75;20091;-57
2021/06/19 12:36:09;;;;;;;5.13;1.10;;;;;;;;;;1908145;75;20080;-58
2021/06/19 12:38:35;;;;;;;3.80;1.08;;;;;;;;;;1908131;67;20144;-57
2021/06/19 12:41:03;;;;;;;3.33;1.00;;;;;;;;;;1909834;67;20099;-58
2021/06/19 12:43:29;;;;;;;4.85;1.33;;;;;;;;;;1908753;67;20118;-57
2021/06/19 12:45:55;;;;;;;6.63;1.10;;;;;;;;;;1908298;67;20084;-58
2021/06/19 12:48:39;;;;;;;6.38;1.10;;;;;;;;;;1908925;75;20084;-58
2021/06/19 12:51:06;;;;;;;7.88;1.98;;;;;;;;;;1908561;67;20412;-57
2021/06/19 12:53:33;;;;;;;4.35;1.00;;;;;;;;;;1908986;67;20087;-58
2021/06/19 12:55:58;;;;;;;7.60;1.60;;;;;;;;;;1907972;75;20395;-58
2021/06/19 12:58:36;;;;;;;4.80;1.20;;;;;;;;;;1908620;75;20080;-59
2021/06/19 13:01:03;;;;;;;8.10;1.40;;;;;;;;;;1908724;67;20095;-59
2021/06/19 13:03:40;;;;;;;5.75;1.30;;;;;;;;;;1909044;67;20090;-61
2021/06/19 13:06:07;;;;;;;7.38;1.65;;;;;;;;;;1908157;67;20440;-59
2021/06/19 13:08:34;;;;;;;4.35;1.10;;;;;;;;;;1905044;67;20088;-61
2021/06/19 13:11:21;;;;;;;7.97;1.42;;;;;;;;;;1908282;67;20095;-62
2021/06/19 13:13:49;;;;;;;1.88;0.85;;;;;;;;;;1907729;67;20403;-62
2021/06/19 13:16:17;;;;;;;6.47;1.17;;;;;;;;;;1908237;67;20098;-60
2021/06/19 13:19:04;;;;;;;2.78;1.30;;;;;;;;;;1907872;67;20103;-60
2021/06/19 13:21:32;;;;;;;4.90;1.13;;;;;;;;;;1908789;67;20076;-62
2021/06/19 13:23:58;;;;;;;2.97;1.13;;;;;;;;;;1908815;67;20114;-61
2021/06/19 13:26:26;;;;;;;7.45;1.80;;;;;;;;;;1908548;75;20090;-61
2021/06/19 13:28:58;;;;;;;3.85;1.73;;;;;;;;;;1908329;67;20438;-62
2021/06/19 13:31:24;;;;;;;3.53;1.10;;;;;;;;;;1909241;67;20099;-62
2021/06/19 13:33:59;;;;;;;4.20;0.93;;;;;;;;;;1908193;67;20091;-58
2021/06/19 13:36:40;;;;;;;5.93;1.25;;;;;;;;;;1908601;67;20084;-57
2021/06/19 13:39:16;;;;;;;6.70;1.25;;;;;;;;;;1908774;67;20084;-58
2021/06/19 13:41:43;;;;;;;5.78;1.35;;;;;;;;;;1909246;67;20084;-58
2021/06/19 13:44:13;;;;;;;5.28;1.10;;;;;;;;;;1909222;67;20521;-57
2021/06/19 13:46:40;;;;;;;4.83;1.20;;;;;;;;;;1909202;67;20572;-58
2021/06/19 13:49:06;;;;;;;5.10;1.27;;;;;;;;;;1909378;67;20092;-59
2021/06/19 13:51:31;;;;;;;6.45;1.10;;;;;;;;;;1909252;67;20091;-58
2021/06/19 13:53:57;;;;;;;3.75;1.40;;;;;;;;;;1909196;67;20538;-60
2021/06/19 13:56:24;;;;;;;4.32;0.90;;;;;;;;;;1907684;67;20731;-58
2021/06/19 13:58:49;;;;;;;4.20;1.10;;;;;;;;;;1908235;67;20602;-58
2021/06/19 14:01:15;;;;;;;3.33;1.20;;;;;;;;;;1908966;67;20090;-57
2021/06/19 14:03:42;;;;;;;3.03;1.10;;;;;;;;;;1907087;67;20482;-57
2021/06/19 14:06:12;;;;;;;5.65;1.08;;;;;;;;;;1907077;67;20080;-58
2021/06/19 14:08:48;;;;;;;3.00;0.98;;;;;;;;;;1910241;67;20095;-57
2021/06/19 14:11:18;;;;;;;8.40;1.40;;;;;;;;;;1908524;67;20098;-57
2021/06/19 14:13:44;;;;;;;3.30;0.98;;;;;;;;;;1909272;67;20099;-57
2021/06/19 14:16:10;;;;;;;3.72;0.98;;;;;;;;;;1907176;67;20072;-57
2021/06/19 14:18:36;;;;;;;6.47;1.10;;;;;;;;;;1908611;67;20106;-57
2021/06/19 14:21:03;;;;;;;5.32;1.05;;;;;;;;;;1908049;67;20088;-57
2021/06/19 14:23:33;;;;;;;6.43;0.98;;;;;;;;;;1908669;67;20084;-56
2021/06/19 14:26:03;;;;;;;2.70;0.90;;;;;;;;;;1909003;67;20423;-57
2021/06/19 14:28:29;;;;;;;3.03;0.98;;;;;;;;;;1908775;67;20079;-57
2021/06/19 14:30:56;;;;;;;7.35;1.10;;;;;;;;;;1908228;67;20138;-56
2021/06/19 14:33:22;;;;;;;4.57;1.20;;;;;;;;;;1908111;67;20099;-56
2021/06/19 14:35:47;;;;;;;3.50;1.00;;;;;;;;;;1908323;67;20101;-56
2021/06/19 14:38:14;;;;;;;3.45;1.20;;;;;;;;;;1908743;67;20079;-56
2021/06/19 14:40:41;;;;;;;4.68;1.17;;;;;;;;;;1908638;75;20395;-56
2021/06/19 14:43:08;;;;;;;6.30;1.30;;;;;;;;;;1907454;67;20095;-56
2021/06/19 14:45:34;;;;;;;3.88;1.23;;;;;;;;;;1910043;67;20091;-56
2021/06/19 14:47:59;;;;;;;4.32;1.00;;;;;;;;;;1909342;75;20539;-56